Terminal Aerodrome Forecast
Issued by NWS

Home | Current Version | Previous Version | Text Only | Print | Product List | Glossary On
Versions: 1 2 3 4 5 6 7 8 9 10 11 12 13 14 15 16 17 18 19 20 21 22 23 24 25 26 27 28 29 30 31 32 33
000
FTUS46 KLOX 211807 CCA
TAFVNY
TAF COR
KVNY 211807Z 2118/2218 28009KT P6SM SCT150
     FM220300 20010KT P6SM SCT025 SCT100
     FM220700 13006KT P6SM BKN025 OVC100
     FM221100 14010KT P6SM VCSH OVC020
     FM221400 14015G25KT 4SM -RA BR SCT010 OVC015=

USA.gov is the U.S. government's official web portal to all federal, state and local government web resources and services.